sensor_id;sensor_type;location;lat;lon;timestamp;pressure;altitude;pressure_sealevel;temperature;humidity
77079;BME280;66004;55.096;38.760;2024-03-08T00:02:13;100199.78;;;-4.02;45.41
77079;BME280;66004;55.096;38.760;2024-03-08T00:04:39;100195.38;;;-4.03;45.35
77079;BME280;66004;55.096;38.760;2024-03-08T00:07:05;100192.03;;;-4.05;45.44
77079;BME280;66004;55.096;38.760;2024-03-08T00:09:31;100182.94;;;-4.05;45.59
77079;BME280;66004;55.096;38.760;2024-03-08T00:11:56;100189.28;;;-4.05;45.67
77079;BME280;66004;55.096;38.760;2024-03-08T00:14:22;100172.16;;;-4.07;45.96
77079;BME280;66004;55.096;38.760;2024-03-08T00:16:47;100177.19;;;-4.04;45.96
77079;BME280;66004;55.096;38.760;2024-03-08T00:19:13;100172.53;;;-4.03;46.00
77079;BME280;66004;55.096;38.760;2024-03-08T00:21:39;100178.88;;;-4.03;46.14
77079;BME280;66004;55.096;38.760;2024-03-08T00:24:04;100167.91;;;-4.03;46.06
77079;BME280;66004;55.096;38.760;2024-03-08T00:26:30;100167.91;;;-4.03;46.26
77079;BME280;66004;55.096;38.760;2024-03-08T00:28:55;100170.63;;;-4.03;46.56
77079;BME280;66004;55.096;38.760;2024-03-08T00:31:21;100162.03;;;-4.06;46.59
77079;BME280;66004;55.096;38.760;2024-03-08T00:33:47;100168.84;;;-4.09;46.87
77079;BME280;66004;55.096;38.760;2024-03-08T00:36:12;100173.13;;;-4.13;46.80
77079;BME280;66004;55.096;38.760;2024-03-08T00:38:38;100167.66;;;-4.13;46.93
77079;BME280;66004;55.096;38.760;2024-03-08T00:41:04;100160.13;;;-4.18;46.89
77079;BME280;66004;55.096;38.760;2024-03-08T00:43:29;100157.63;;;-4.19;46.89
77079;BME280;66004;55.096;38.760;2024-03-08T00:45:58;100170.91;;;-4.16;47.08
77079;BME280;66004;55.096;38.760;2024-03-08T00:48:23;100162.66;;;-4.16;47.28
77079;BME280;66004;55.096;38.760;2024-03-08T00:50:49;100153.19;;;-4.20;47.31
77079;BME280;66004;55.096;38.760;2024-03-08T00:53:15;100147.59;;;-4.25;47.26
77079;BME280;66004;55.096;38.760;2024-03-08T00:55:40;100152.84;;;-4.24;47.42
77079;BME280;66004;55.096;38.760;2024-03-08T00:58:06;100145.91;;;-4.26;47.39
77079;BME280;66004;55.096;38.760;2024-03-08T01:00:31;100144.25;;;-4.27;47.51
77079;BME280;66004;55.096;38.760;2024-03-08T01:02:57;100146.88;;;-4.33;47.48
77079;BME280;66004;55.096;38.760;2024-03-08T01:05:24;100140.22;;;-4.37;48.03
77079;BME280;66004;55.096;38.760;2024-03-08T01:07:50;100141.88;;;-4.36;47.90
77079;BME280;66004;55.096;38.760;2024-03-08T01:10:16;100136.88;;;-4.39;48.15
77079;BME280;66004;55.096;38.760;2024-03-08T01:12:41;100127.41;;;-4.43;48.15
77079;BME280;66004;55.096;38.760;2024-03-08T01:15:09;100110.59;;;-4.58;48.31
77079;BME280;66004;55.096;38.760;2024-03-08T01:17:35;100130.53;;;-4.51;48.40
77079;BME280;66004;55.096;38.760;2024-03-08T01:20:01;100124.66;;;-4.55;48.15
77079;BME280;66004;55.096;38.760;2024-03-08T01:22:27;100122.53;;;-4.64;48.26
77079;BME280;66004;55.096;38.760;2024-03-08T01:24:55;100118.00;;;-4.71;48.45
77079;BME280;66004;55.096;38.760;2024-03-08T01:27:20;100095.19;;;-4.83;48.54
77079;BME280;66004;55.096;38.760;2024-03-08T01:29:46;100099.13;;;-4.79;48.66
77079;BME280;66004;55.096;38.760;2024-03-08T01:32:12;100087.91;;;-4.89;48.92
77079;BME280;66004;55.096;38.760;2024-03-08T01:34:37;100099.13;;;-4.79;48.81
77079;BME280;66004;55.096;38.760;2024-03-08T01:37:03;100094.59;;;-4.85;48.70
77079;BME280;66004;55.096;38.760;2024-03-08T01:39:28;100089.56;;;-4.88;49.32
77079;BME280;66004;55.096;38.760;2024-03-08T01:41:54;100095.53;;;-4.91;49.53
77079;BME280;66004;55.096;38.760;2024-03-08T01:44:19;100075.97;;;-5.06;49.48
77079;BME280;66004;55.096;38.760;2024-03-08T01:46:46;100087.41;;;-5.10;49.56
77079;BME280;66004;55.096;38.760;2024-03-08T01:49:13;100080.13;;;-5.16;49.86
77079;BME280;66004;55.096;38.760;2024-03-08T01:51:41;100084.16;;;-5.18;49.94
77079;BME280;66004;55.096;38.760;2024-03-08T01:54:08;100078.28;;;-5.22;49.71
77079;BME280;66004;55.096;38.760;2024-03-08T01:56:38;100088.47;;;-5.11;49.64
77079;BME280;66004;55.096;38.760;2024-03-08T01:59:04;100083.34;;;-5.07;50.01
77079;BME280;66004;55.096;38.760;2024-03-08T02:01:33;100092.28;;;-5.00;50.02
77079;BME280;66004;55.096;38.760;2024-03-08T02:03:59;100090.50;;;-4.94;49.88
77079;BME280;66004;55.096;38.760;2024-03-08T02:06:25;100089.19;;;-4.92;49.80
77079;BME280;66004;55.096;38.760;2024-03-08T02:08:51;100061.28;;;-5.00;49.46
77079;BME280;66004;55.096;38.760;2024-03-08T02:11:17;100087.31;;;-4.91;49.64
77079;BME280;66004;55.096;38.760;2024-03-08T02:13:44;100080.84;;;-4.97;49.66
77079;BME280;66004;55.096;38.760;2024-03-08T02:16:10;100072.72;;;-5.03;49.61
77079;BME280;66004;55.096;38.760;2024-03-08T02:18:36;100069.97;;;-5.03;50.02
77079;BME280;66004;55.096;38.760;2024-03-08T02:21:03;100073.31;;;-5.01;49.65
77079;BME280;66004;55.096;38.760;2024-03-08T02:23:29;100079.41;;;-4.99;49.96
77079;BME280;66004;55.096;38.760;2024-03-08T02:25:56;100080.25;;;-4.99;50.26
77079;BME280;66004;55.096;38.760;2024-03-08T02:28:22;100062.84;;;-5.04;50.50
77079;BME280;66004;55.096;38.760;2024-03-08T02:30:48;100069.28;;;-4.87;50.26
77079;BME280;66004;55.096;38.760;2024-03-08T02:33:15;100066.69;;;-4.82;50.31
77079;BME280;66004;55.096;38.760;2024-03-08T02:35:45;100065.13;;;-4.78;50.36
77079;BME280;66004;55.096;38.760;2024-03-08T02:38:12;100059.13;;;-4.75;50.33
77079;BME280;66004;55.096;38.760;2024-03-08T02:40:38;100054.28;;;-4.73;50.28
77079;BME280;66004;55.096;38.760;2024-03-08T02:43:04;100052.00;;;-4.76;50.62
77079;BME280;66004;55.096;38.760;2024-03-08T02:45:30;100053.06;;;-4.77;50.57
77079;BME280;66004;55.096;38.760;2024-03-08T02:47:56;100041.47;;;-4.79;50.48
77079;BME280;66004;55.096;38.760;2024-03-08T02:50:21;100053.78;;;-4.70;50.77
77079;BME280;66004;55.096;38.760;2024-03-08T02:52:48;100029.91;;;-4.81;50.85
77079;BME280;66004;55.096;38.760;2024-03-08T02:55:14;100043.28;;;-4.73;50.88
77079;BME280;66004;55.096;38.760;2024-03-08T02:57:42;100047.69;;;-4.72;51.34
77079;BME280;66004;55.096;38.760;2024-03-08T03:00:13;100036.59;;;-4.77;51.32
77079;BME280;66004;55.096;38.760;2024-03-08T03:02:39;100041.47;;;-4.79;51.33
77079;BME280;66004;55.096;38.760;2024-03-08T03:05:05;100039.69;;;-4.85;51.72
77079;BME280;66004;55.096;38.760;2024-03-08T03:07:34;100043.88;;;-4.82;51.34
77079;BME280;66004;55.096;38.760;2024-03-08T03:10:00;100046.38;;;-4.81;51.63
77079;BME280;66004;55.096;38.760;2024-03-08T03:12:29;100033.16;;;-4.84;51.85
77079;BME280;66004;55.096;38.760;2024-03-08T03:14:56;100033.38;;;-4.85;51.57
77079;BME280;66004;55.096;38.760;2024-03-08T03:17:25;100029.69;;;-4.91;52.34
77079;BME280;66004;55.096;38.760;2024-03-08T03:19:51;100002.72;;;-5.06;52.19
77079;BME280;66004;55.096;38.760;2024-03-08T03:22:19;100002.13;;;-5.08;52.26
77079;BME280;66004;55.096;38.760;2024-03-08T03:24:45;100001.75;;;-5.12;52.50
77079;BME280;66004;55.096;38.760;2024-03-08T03:27:14;100016.31;;;-4.99;52.28
77079;BME280;66004;55.096;38.760;2024-03-08T03:29:41;100022.28;;;-5.02;52.51
77079;BME280;66004;55.096;38.760;2024-03-08T03:32:15;100018.94;;;-5.04;52.44
77079;BME280;66004;55.096;38.760;2024-03-08T03:34:41;99992.94;;;-5.14;52.58
77079;BME280;66004;55.096;38.760;2024-03-08T03:37:07;100001.28;;;-5.09;52.65
77079;BME280;66004;55.096;38.760;2024-03-08T03:39:34;99991.25;;;-5.15;52.95
77079;BME280;66004;55.096;38.760;2024-03-08T03:42:02;99996.28;;;-5.12;53.07
77079;BME280;66004;55.096;38.760;2024-03-08T03:44:28;99983.63;;;-5.13;53.46
77079;BME280;66004;55.096;38.760;2024-03-08T03:46:54;99976.00;;;-5.11;53.74
77079;BME280;66004;55.096;38.760;2024-03-08T03:49:20;99968.72;;;-5.05;53.52
77079;BME280;66004;55.096;38.760;2024-03-08T03:51:46;99975.50;;;-4.96;53.68
77079;BME280;66004;55.096;38.760;2024-03-08T03:54:12;99974.31;;;-4.88;53.57
77079;BME280;66004;55.096;38.760;2024-03-08T03:56:38;99973.38;;;-4.82;53.12
77079;BME280;66004;55.096;38.760;2024-03-08T03:59:05;99962.97;;;-4.80;53.02
77079;BME280;66004;55.096;38.760;2024-03-08T04:01:31;99971.94;;;-4.73;53.19
77079;BME280;66004;55.096;38.760;2024-03-08T04:03:57;99969.41;;;-4.74;53.40
77079;BME280;66004;55.096;38.760;2024-03-08T04:06:23;99974.56;;;-4.78;53.00
77079;BME280;66004;55.096;38.760;2024-03-08T04:08:49;99970.63;;;-4.82;53.58
77079;BME280;66004;55.096;38.760;2024-03-08T04:11:15;99970.84;;;-4.83;53.31
77079;BME280;66004;55.096;38.760;2024-03-08T04:13:42;99968.34;;;-4.85;53.56
77079;BME280;66004;55.096;38.760;2024-03-08T04:16:08;99964.53;;;-4.84;53.41
77079;BME280;66004;55.096;38.760;2024-03-08T04:18:34;99948.94;;;-4.95;53.49
77079;BME280;66004;55.096;38.760;2024-03-08T04:21:06;99947.97;;;-4.89;53.75
77079;BME280;66004;55.096;38.760;2024-03-08T04:23:34;99962.97;;;-4.80;53.93
77079;BME280;66004;55.096;38.760;2024-03-08T04:26:03;99957.09;;;-4.72;53.92
77079;BME280;66004;55.096;38.760;2024-03-08T04:28:31;99962.31;;;-4.58;53.62
77079;BME280;66004;55.096;38.760;2024-03-08T04:30:57;99955.84;;;-4.52;53.67
77079;BME280;66004;55.096;38.760;2024-03-08T04:33:22;99948.63;;;-4.30;53.15
77079;BME280;66004;55.096;38.760;2024-03-08T04:35:49;99947.84;;;-4.13;52.94
77079;BME280;66004;55.096;38.760;2024-03-08T04:38:14;99941.31;;;-4.24;52.82
77079;BME280;66004;55.096;38.760;2024-03-08T04:40:41;99942.47;;;-4.37;53.23
77079;BME280;66004;55.096;38.760;2024-03-08T04:43:07;99944.41;;;-4.49;53.49
77079;BME280;66004;55.096;38.760;2024-03-08T04:45:34;99943.47;;;-4.55;53.49
77079;BME280;66004;55.096;38.760;2024-03-08T04:47:59;99940.38;;;-4.58;53.94
77079;BME280;66004;55.096;38.760;2024-03-08T04:50:25;99923.69;;;-4.68;53.89
77079;BME280;66004;55.096;38.760;2024-03-08T04:52:50;99927.03;;;-4.66;54.00
77079;BME280;66004;55.096;38.760;2024-03-08T04:55:15;99929.38;;;-4.58;53.84
77079;BME280;66004;55.096;38.760;2024-03-08T04:57:41;99928.91;;;-4.55;53.70
77079;BME280;66004;55.096;38.760;2024-03-08T05:00:10;99929.59;;;-4.48;53.92
77079;BME280;66004;55.096;38.760;2024-03-08T05:02:39;99912.97;;;-4.41;53.95
77079;BME280;66004;55.096;38.760;2024-03-08T05:05:08;99935.09;;;-4.19;53.48
77079;BME280;66004;55.096;38.760;2024-03-08T05:07:36;99935.56;;;-4.11;53.25
77079;BME280;66004;55.096;38.760;2024-03-08T05:10:02;99925.56;;;-4.00;53.44
77079;BME280;66004;55.096;38.760;2024-03-08T05:12:28;99925.75;;;-3.89;53.46
77079;BME280;66004;55.096;38.760;2024-03-08T05:14:54;99927.44;;;-3.55;53.28
77079;BME280;66004;55.096;38.760;2024-03-08T05:17:20;99923.81;;;-2.65;51.88
77079;BME280;66004;55.096;38.760;2024-03-08T05:19:46;99927.72;;;-1.85;50.35
77079;BME280;66004;55.096;38.760;2024-03-08T05:22:11;99907.88;;;-1.49;49.08
77079;BME280;66004;55.096;38.760;2024-03-08T05:24:37;99903.44;;;-1.55;49.32
77079;BME280;66004;55.096;38.760;2024-03-08T05:27:02;99914.81;;;-1.79;49.97
77079;BME280;66004;55.096;38.760;2024-03-08T05:29:29;99910.03;;;-2.16;50.36
77079;BME280;66004;55.096;38.760;2024-03-08T05:31:55;99913.03;;;-2.45;51.25
77079;BME280;66004;55.096;38.760;2024-03-08T05:34:22;99910.47;;;-2.74;51.58
77079;BME280;66004;55.096;38.760;2024-03-08T05:36:48;99900.84;;;-2.93;52.28
77079;BME280;66004;55.096;38.760;2024-03-08T05:39:17;99906.34;;;-2.49;52.04
77079;BME280;66004;55.096;38.760;2024-03-08T05:41:43;99914.72;;;-1.89;51.08
77079;BME280;66004;55.096;38.760;2024-03-08T05:44:09;99911.75;;;-1.50;49.95
77079;BME280;66004;55.096;38.760;2024-03-08T05:46:36;99905.34;;;-1.24;49.67
77079;BME280;66004;55.096;38.760;2024-03-08T05:49:05;99896.84;;;-1.12;48.97
77079;BME280;66004;55.096;38.760;2024-03-08T05:51:34;99913.31;;;-0.85;48.77
77079;BME280;66004;55.096;38.760;2024-03-08T05:54:01;99918.34;;;-0.71;48.50
77079;BME280;66004;55.096;38.760;2024-03-08T05:56:28;99909.31;;;-0.56;48.22
77079;BME280;66004;55.096;38.760;2024-03-08T05:58:54;99882.53;;;-0.46;48.17
77079;BME280;66004;55.096;38.760;2024-03-08T06:01:19;99906.44;;;-0.04;47.63
77079;BME280;66004;55.096;38.760;2024-03-08T06:03:51;99891.53;;;0.28;47.35
77079;BME280;66004;55.096;38.760;2024-03-08T06:06:17;99902.03;;;0.62;47.13
77079;BME280;66004;55.096;38.760;2024-03-08T06:08:43;99888.72;;;0.95;46.62
77079;BME280;66004;55.096;38.760;2024-03-08T06:11:09;99897.47;;;1.38;46.10
77079;BME280;66004;55.096;38.760;2024-03-08T06:13:35;99874.00;;;1.75;45.44
77079;BME280;66004;55.096;38.760;2024-03-08T06:16:01;99895.59;;;1.83;45.34
77079;BME280;66004;55.096;38.760;2024-03-08T06:18:31;99899.69;;;1.36;46.39
77079;BME280;66004;55.096;38.760;2024-03-08T06:20:56;99898.13;;;0.94;47.38
77079;BME280;66004;55.096;38.760;2024-03-08T06:23:22;99897.06;;;0.59;47.80
77079;BME280;66004;55.096;38.760;2024-03-08T06:25:48;99890.94;;;0.11;48.16
77079;BME280;66004;55.096;38.760;2024-03-08T06:28:13;99900.06;;;-0.09;48.78
77079;BME280;66004;55.096;38.760;2024-03-08T06:30:39;99910.81;;;-0.18;48.91
77079;BME280;66004;55.096;38.760;2024-03-08T06:33:07;99904.72;;;-0.25;49.17
77079;BME280;66004;55.096;38.760;2024-03-08T06:35:33;99903.00;;;-0.47;49.45
77079;BME280;66004;55.096;38.760;2024-03-08T06:38:01;99906.84;;;-0.48;49.75
77079;BME280;66004;55.096;38.760;2024-03-08T06:40:27;99893.56;;;-0.46;49.77
77079;BME280;66004;55.096;38.760;2024-03-08T06:42:53;99889.47;;;-0.38;49.54
77079;BME280;66004;55.096;38.760;2024-03-08T06:45:19;99883.09;;;-0.38;49.65
77079;BME280;66004;55.096;38.760;2024-03-08T06:47:48;99891.38;;;-0.44;49.97
77079;BME280;66004;55.096;38.760;2024-03-08T06:50:14;99893.34;;;-0.39;50.20
77079;BME280;66004;55.096;38.760;2024-03-08T06:52:43;99882.00;;;-0.32;50.05
77079;BME280;66004;55.096;38.760;2024-03-08T06:55:09;99894.22;;;-0.18;50.05
77079;BME280;66004;55.096;38.760;2024-03-08T06:57:41;99899.44;;;-0.32;50.50
77079;BME280;66004;55.096;38.760;2024-03-08T07:00:07;99895.53;;;-0.41;50.90
77079;BME280;66004;55.096;38.760;2024-03-08T07:02:40;99897.44;;;-0.52;50.95
77079;BME280;66004;55.096;38.760;2024-03-08T07:05:06;99888.06;;;-0.46;51.34
77079;BME280;66004;55.096;38.760;2024-03-08T07:07:31;99893.66;;;-0.25;51.15
77079;BME280;66004;55.096;38.760;2024-03-08T07:09:59;99898.41;;;-0.05;50.89
77079;BME280;66004;55.096;38.760;2024-03-08T07:12:24;99899.22;;;0.06;50.81
77079;BME280;66004;55.096;38.760;2024-03-08T07:14:51;99894.84;;;0.20;50.74
77079;BME280;66004;55.096;38.760;2024-03-08T07:17:17;99894.56;;;0.37;50.67
77079;BME280;66004;55.096;38.760;2024-03-08T07:19:42;99891.00;;;0.42;50.51
77079;BME280;66004;55.096;38.760;2024-03-08T07:22:07;99872.97;;;0.18;50.37
77079;BME280;66004;55.096;38.760;2024-03-08T07:24:36;99885.44;;;0.21;50.70
77079;BME280;66004;55.096;38.760;2024-03-08T07:27:04;99877.41;;;0.30;50.77
77079;BME280;66004;55.096;38.760;2024-03-08T07:29:31;99885.16;;;0.28;50.77
77079;BME280;66004;55.096;38.760;2024-03-08T07:31:56;99884.88;;;0.14;50.89
77079;BME280;66004;55.096;38.760;2024-03-08T07:34:42;99878.78;;;-0.04;51.35
77079;BME280;66004;55.096;38.760;2024-03-08T07:37:07;99873.78;;;-0.17;51.51
77079;BME280;66004;55.096;38.760;2024-03-08T07:39:37;99880.41;;;-0.13;51.71
77079;BME280;66004;55.096;38.760;2024-03-08T07:42:03;99884.28;;;-0.14;51.92
77079;BME280;66004;55.096;38.760;2024-03-08T07:44:29;99878.78;;;-0.04;51.83
77079;BME280;66004;55.096;38.760;2024-03-08T07:46:56;99883.25;;;0.23;51.41
77079;BME280;66004;55.096;38.760;2024-03-08T07:49:21;99878.81;;;0.27;51.40
77079;BME280;66004;55.096;38.760;2024-03-08T07:51:47;99875.50;;;0.25;51.17
77079;BME280;66004;55.096;38.760;2024-03-08T07:54:14;99872.16;;;0.33;51.36
77079;BME280;66004;55.096;38.760;2024-03-08T07:56:40;99868.84;;;0.31;51.26
77079;BME280;66004;55.096;38.760;2024-03-08T07:59:05;99870.50;;;0.37;51.35
77079;BME280;66004;55.096;38.760;2024-03-08T08:01:31;99863.31;;;0.42;51.41
77079;BME280;66004;55.096;38.760;2024-03-08T08:03:58;99843.38;;;0.29;51.65
77079;BME280;66004;55.096;38.760;2024-03-08T08:06:24;99874.38;;;0.31;51.62
77079;BME280;66004;55.096;38.760;2024-03-08T08:08:50;99850.59;;;0.30;51.59
77079;BME280;66004;55.096;38.760;2024-03-08T08:11:16;99866.63;;;0.33;51.33
77079;BME280;66004;55.096;38.760;2024-03-08T08:13:42;99865.25;;;0.31;51.63
77079;BME280;66004;55.096;38.760;2024-03-08T08:16:09;99874.34;;;0.06;52.05
77079;BME280;66004;55.096;38.760;2024-03-08T08:18:36;99851.13;;;0.07;52.16
77079;BME280;66004;55.096;38.760;2024-03-08T08:21:05;99863.88;;;0.38;51.86
77079;BME280;66004;55.096;38.760;2024-03-08T08:23:33;99859.44;;;0.43;52.22
77079;BME280;66004;55.096;38.760;2024-03-08T08:25:59;99857.19;;;0.65;52.03
77079;BME280;66004;55.096;38.760;2024-03-08T08:28:25;99866.03;;;0.88;51.59
77079;BME280;66004;55.096;38.760;2024-03-08T08:30:50;99856.56;;;0.99;51.15
77079;BME280;66004;55.096;38.760;2024-03-08T08:33:16;99852.75;;;0.80;51.12
77079;BME280;66004;55.096;38.760;2024-03-08T08:35:42;99847.19;;;0.90;51.29
77079;BME280;66004;55.096;38.760;2024-03-08T08:38:08;99844.94;;;0.92;51.38
77079;BME280;66004;55.096;38.760;2024-03-08T08:40:34;99853.81;;;0.94;51.22
77079;BME280;66004;55.096;38.760;2024-03-08T08:43:01;99846.03;;;0.96;50.99
77079;BME280;66004;55.096;38.760;2024-03-08T08:45:30;99846.59;;;1.03;51.07
77079;BME280;66004;55.096;38.760;2024-03-08T08:47:56;99847.13;;;1.10;51.13
77079;BME280;66004;55.096;38.760;2024-03-08T08:50:22;99837.19;;;1.04;50.78
77079;BME280;66004;55.096;38.760;2024-03-08T08:52:54;99849.13;;;0.94;51.46
77079;BME280;66004;55.096;38.760;2024-03-08T08:55:19;99847.19;;;0.90;51.59
77079;BME280;66004;55.096;38.760;2024-03-08T08:57:52;99842.16;;;1.02;51.45
77079;BME280;66004;55.096;38.760;2024-03-08T09:00:20;99842.06;;;1.28;51.24
77079;BME280;66004;55.096;38.760;2024-03-08T09:02:47;99833.72;;;1.33;50.70
77079;BME280;66004;55.096;38.760;2024-03-08T09:05:13;99851.50;;;1.27;51.02
77079;BME280;66004;55.096;38.760;2024-03-08T09:07:48;99856.53;;;1.14;50.68
77079;BME280;66004;55.096;38.760;2024-03-08T09:10:14;99843.84;;;0.98;51.26
77079;BME280;66004;55.096;38.760;2024-03-08T09:12:40;99849.94;;;0.90;51.32
77079;BME280;66004;55.096;38.760;2024-03-08T09:15:06;99844.94;;;0.92;51.76
77079;BME280;66004;55.096;38.760;2024-03-08T09:17:34;99840.53;;;0.86;51.77
77079;BME280;66004;55.096;38.760;2024-03-08T09:19:59;99847.69;;;1.07;51.70
77079;BME280;66004;55.096;38.760;2024-03-08T09:22:25;99852.53;;;1.41;51.44
77079;BME280;66004;55.096;38.760;2024-03-08T09:24:51;99842.59;;;1.30;51.40
77079;BME280;66004;55.096;38.760;2024-03-08T09:27:17;99850.91;;;1.30;51.62
77079;BME280;66004;55.096;38.760;2024-03-08T09:29:43;99830.44;;;1.26;51.32
77079;BME280;66004;55.096;38.760;2024-03-08T09:32:10;99848.13;;;1.40;51.60
77079;BME280;66004;55.096;38.760;2024-03-08T09:34:37;99848.03;;;1.55;51.49
77079;BME280;66004;55.096;38.760;2024-03-08T09:37:02;99846.34;;;1.65;51.11
77079;BME280;66004;55.096;38.760;2024-03-08T09:39:29;99842.31;;;1.86;51.06
77079;BME280;66004;55.096;38.760;2024-03-08T09:41:55;99835.50;;;2.13;50.85
77079;BME280;66004;55.096;38.760;2024-03-08T09:44:21;99835.78;;;2.41;50.81
77079;BME280;66004;55.096;38.760;2024-03-08T09:46:49;99828.88;;;2.67;50.26
77079;BME280;66004;55.096;38.760;2024-03-08T09:49:19;99834.38;;;3.02;49.92
77079;BME280;66004;55.096;38.760;2024-03-08T09:51:44;99836.03;;;3.27;49.37
77079;BME280;66004;55.096;38.760;2024-03-08T09:54:12;99820.94;;;3.52;49.33
77079;BME280;66004;55.096;38.760;2024-03-08T09:56:39;99812.72;;;3.66;48.47
77079;BME280;66004;55.096;38.760;2024-03-08T09:59:07;99816.03;;;3.87;48.36
77079;BME280;66004;55.096;38.760;2024-03-08T10:01:51;99790.97;;;4.06;47.94
77079;BME280;66004;55.096;38.760;2024-03-08T10:04:24;99821.06;;;4.37;47.41
77079;BME280;66004;55.096;38.760;2024-03-08T10:06:51;99804.94;;;4.01;47.70
77079;BME280;66004;55.096;38.760;2024-03-08T10:09:17;99822.56;;;4.15;47.88
77079;BME280;66004;55.096;38.760;2024-03-08T10:11:44;99814.13;;;4.20;47.46
77079;BME280;66004;55.096;38.760;2024-03-08T10:14:09;99817.97;;;4.05;47.08
77079;BME280;66004;55.096;38.760;2024-03-08T10:16:35;99819.31;;;3.89;47.70
77079;BME280;66004;55.096;38.760;2024-03-08T10:19:01;99820.31;;;3.98;47.55
77079;BME280;66004;55.096;38.760;2024-03-08T10:21:26;99812.78;;;3.99;47.79
77079;BME280;66004;55.096;38.760;2024-03-08T10:23:52;99811.19;;;4.12;48.02
77079;BME280;66004;55.096;38.760;2024-03-08T10:26:19;99806.63;;;4.02;47.53
77079;BME280;66004;55.096;38.760;2024-03-08T10:28:51;99811.50;;;3.91;47.86
77079;BME280;66004;55.096;38.760;2024-03-08T10:31:17;99813.69;;;3.75;48.21
77079;BME280;66004;55.096;38.760;2024-03-08T10:33:45;99805.19;;;3.47;48.18
77079;BME280;66004;55.096;38.760;2024-03-08T10:36:11;99803.59;;;3.41;48.51
77079;BME280;66004;55.096;38.760;2024-03-08T10:38:38;99802.84;;;3.55;48.68
77079;BME280;66004;55.096;38.760;2024-03-08T10:41:06;99810.28;;;3.59;48.11
77079;BME280;66004;55.096;38.760;2024-03-08T10:43:57;99796.31;;;3.45;48.70
77079;BME280;66004;55.096;38.760;2024-03-08T10:47:00;99791.50;;;3.51;48.65
77079;BME280;66004;55.096;38.760;2024-03-08T10:49:32;99780.16;;;3.47;48.96
77079;BME280;66004;55.096;38.760;2024-03-08T10:52:05;99786.28;;;3.44;49.01
77079;BME280;66004;55.096;38.760;2024-03-08T10:54:42;99795.16;;;3.46;49.34
77079;BME280;66004;55.096;38.760;2024-03-08T10:57:13;99796.06;;;3.42;49.17
77079;BME280;66004;55.096;38.760;2024-03-08T10:59:40;99792.69;;;3.45;49.20
77079;BME280;66004;55.096;38.760;2024-03-08T11:02:11;99794.72;;;3.39;49.25
77079;BME280;66004;55.096;38.760;2024-03-08T11:04:37;99791.31;;;3.23;49.44
77079;BME280;66004;55.096;38.760;2024-03-08T11:07:03;99798.06;;;3.17;49.66
77079;BME280;66004;55.096;38.760;2024-03-08T11:09:37;99801.78;;;3.07;49.95
77079;BME280;66004;55.096;38.760;2024-03-08T11:12:20;99803.50;;;3.03;50.02
77079;BME280;66004;55.096;38.760;2024-03-08T11:14:49;99799.16;;;3.16;50.16
77079;BME280;66004;55.096;38.760;2024-03-08T11:17:16;99793.19;;;3.28;50.21
77079;BME280;66004;55.096;38.760;2024-03-08T11:19:46;99798.81;;;3.66;49.47
77079;BME280;66004;55.096;38.760;2024-03-08T11:22:25;99803.84;;;4.02;48.88
77079;BME280;66004;55.096;38.760;2024-03-08T11:25:01;99804.03;;;4.24;48.70
77079;BME280;66004;55.096;38.760;2024-03-08T11:27:53;99811.69;;;4.33;48.63
77079;BME280;66004;55.096;38.760;2024-03-08T11:30:31;99811.53;;;4.43;48.45
77079;BME280;66004;55.096;38.760;2024-03-08T11:33:02;99786.88;;;4.17;47.94
77079;BME280;66004;55.096;38.760;2024-03-08T11:35:29;99794.84;;;4.05;48.09
77079;BME280;66004;55.096;38.760;2024-03-08T11:37:54;99803.31;;;4.00;48.60
77079;BME280;66004;55.096;38.760;2024-03-08T11:40:23;99808.94;;;4.14;48.57
77079;BME280;66004;55.096;38.760;2024-03-08T11:42:49;99807.88;;;4.09;48.34
77079;BME280;66004;55.096;38.760;2024-03-08T11:45:20;99801.19;;;3.92;48.93
77079;BME280;66004;55.096;38.760;2024-03-08T11:47:48;99795.47;;;4.02;48.79
77079;BME280;66004;55.096;38.760;2024-03-08T11:50:15;99803.13;;;4.10;49.15
77079;BME280;66004;55.096;38.760;2024-03-08T11:52:41;99793.66;;;4.11;48.81
77079;BME280;66004;55.096;38.760;2024-03-08T11:55:08;99804.31;;;4.23;48.86
77079;BME280;66004;55.096;38.760;2024-03-08T11:57:34;99812.47;;;4.19;48.57
77079;BME280;66004;55.096;38.760;2024-03-08T12:00:00;99820.16;;;3.89;48.97
77079;BME280;66004;55.096;38.760;2024-03-08T12:02:32;99810.16;;;3.69;49.31
77079;BME280;66004;55.096;38.760;2024-03-08T12:05:00;99811.19;;;3.55;49.70
77079;BME280;66004;55.096;38.760;2024-03-08T12:07:29;99802.06;;;3.30;50.42
77079;BME280;66004;55.096;38.760;2024-03-08T12:12:44;99802.47;;;3.61;50.35
77079;BME280;66004;55.096;38.760;2024-03-08T12:15:09;99802.69;;;3.65;50.23
77079;BME280;66004;55.096;38.760;2024-03-08T12:17:37;99806.97;;;3.57;50.39
77079;BME280;66004;55.096;38.760;2024-03-08T12:20:18;99805.19;;;3.47;50.74
77079;BME280;66004;55.096;38.760;2024-03-08T12:22:47;99801.88;;;3.45;50.70
77079;BME280;66004;55.096;38.760;2024-03-08T12:25:14;99792.75;;;3.40;50.83
77079;BME280;66004;55.096;38.760;2024-03-08T12:27:41;99795.78;;;3.43;50.98
77079;BME280;66004;55.096;38.760;2024-03-08T12:30:25;99797.94;;;3.46;51.12
77079;BME280;66004;55.096;38.760;2024-03-08T12:32:59;99796.75;;;3.34;51.11
77079;BME280;66004;55.096;38.760;2024-03-08T12:35:27;99798.41;;;3.10;51.67
77079;BME280;66004;55.096;38.760;2024-03-08T12:37:54;99785.66;;;3.09;51.86
77079;BME280;66004;55.096;38.760;2024-03-08T12:40:26;99798.38;;;3.35;51.32
77079;BME280;66004;55.096;38.760;2024-03-08T12:42:52;99786.56;;;3.24;51.66
77079;BME280;66004;55.096;38.760;2024-03-08T12:45:18;99799.09;;;3.45;51.28
77079;BME280;66004;55.096;38.760;2024-03-08T12:47:43;99795.63;;;3.54;51.16
77079;BME280;66004;55.096;38.760;2024-03-08T12:50:10;99785.72;;;3.47;51.08
77079;BME280;66004;55.096;38.760;2024-03-08T12:52:36;99794.97;;;3.43;51.39
77079;BME280;66004;55.096;38.760;2024-03-08T12:55:02;99792.31;;;3.51;51.29
77079;BME280;66004;55.096;38.760;2024-03-08T12:57:28;99795.78;;;3.43;51.29